Visit the IPS Meteostar Home Page 2IPSM Phoenix Sky Harbor International Airport FORECAST

Phoenix, Arizona

2 miles away at Phoenix Sky Harbor International Airport 5:51 GMT

Weather:

Partly Cloudy

Wind:

CALM

Temperature:

56 ° F

Pressure:

30.20

Dew Point:

44 ° F

Relative Humidity:

64

Feels Like:

56 ° F

Visibility:

10 miles


Aviation Observations:

KPHX 100551Z 00000KT 10SM SCT250 13/07 A3019 RMK AO2 SLP218 T01330067 10206 20122 56001 =

National Weather Service Forecast:
Greater Phoenix Area


Visit the IPS Meteostar Home Page